createdAt,value
2022-11-27T00:02:24.820Z,40.90
2022-11-27T00:05:08.508Z,45.30
2022-11-27T00:07:52.534Z,43.50
2022-11-27T00:10:35.804Z,43.10
2022-11-27T00:13:18.976Z,40.80
2022-11-27T00:16:02.306Z,41.30
2022-11-27T00:18:45.259Z,41.40
2022-11-27T00:21:31.046Z,40.40
2022-11-27T00:24:13.924Z,41.30
2022-11-27T00:26:56.768Z,39.10
2022-11-27T00:29:39.704Z,40.70
2022-11-27T00:32:22.534Z,38.30
2022-11-27T00:37:49.289Z,36.20
2022-11-27T00:40:32.385Z,40.20
2022-11-27T00:43:15.375Z,40.20
2022-11-27T00:45:58.150Z,42.20
2022-11-27T00:51:25.758Z,38.40
2022-11-27T00:54:08.911Z,39.50
2022-11-27T00:56:51.791Z,41.40
2022-11-27T00:59:34.524Z,39.80
2022-11-27T01:05:00.336Z,34.20
2022-11-27T01:10:25.877Z,35.40
2022-11-27T01:13:09.216Z,35.70
2022-11-27T01:18:49.333Z,33.70
2022-11-27T01:21:34.295Z,35.90
2022-11-27T01:24:18.028Z,33.30
2022-11-27T01:27:00.780Z,30.00
2022-11-27T01:32:26.455Z,31.60
2022-11-27T01:35:09.688Z,30.90
2022-11-27T01:37:52.603Z,29.60
2022-11-27T01:40:35.404Z,31.50
2022-11-27T01:43:38.377Z,31.30
2022-11-27T01:46:36.515Z,31.00
2022-11-27T01:49:32.213Z,31.20
2022-11-27T01:52:27.255Z,30.70
2022-11-27T01:55:21.630Z,29.90
2022-11-27T01:58:12.183Z,29.50
2022-11-27T02:00:55.321Z,30.10
2022-11-27T02:03:38.166Z,31.70
2022-11-27T02:06:21.001Z,32.00
2022-11-27T02:09:04.181Z,29.20
2022-11-27T02:11:58.362Z,31.70
2022-11-27T02:15:06.613Z,31.90
2022-11-27T02:18:00.131Z,29.60
2022-11-27T02:20:48.482Z,27.00
2022-11-27T02:24:02.570Z,28.90
2022-11-27T02:27:19.458Z,30.30
2022-11-27T02:30:05.183Z,29.90
2022-11-27T02:32:57.123Z,31.50
2022-11-27T02:35:49.731Z,30.60
2022-11-27T02:38:44.882Z,31.70
2022-11-27T02:41:37.172Z,30.10
2022-11-27T02:44:22.686Z,29.10
2022-11-27T02:47:06.111Z,32.10
2022-11-27T02:49:51.177Z,31.70
2022-11-27T02:52:34.003Z,32.10
2022-11-27T02:58:05.814Z,31.90
2022-11-27T03:00:50.483Z,33.10
2022-11-27T03:03:38.694Z,31.00
2022-11-27T03:06:36.464Z,30.50
2022-11-27T03:09:25.375Z,29.90
2022-11-27T03:12:10.393Z,30.80
2022-11-27T03:14:53.326Z,30.80
2022-11-27T03:17:40.769Z,30.60
2022-11-27T03:20:26.867Z,31.80
2022-11-27T03:23:09.677Z,32.20
2022-11-27T03:28:36.803Z,29.00
2022-11-27T03:31:21.118Z,32.10
2022-11-27T03:34:05.081Z,30.90
2022-11-27T03:36:49.131Z,29.10
2022-11-27T03:39:33.024Z,32.40
2022-11-27T03:42:38.820Z,31.60
2022-11-27T03:45:58.358Z,32.10
2022-11-27T03:48:59.763Z,32.80
2022-11-27T03:52:02.584Z,33.40
2022-11-27T03:54:51.444Z,34.40
2022-11-27T03:57:40.854Z,36.80
2022-11-27T04:00:24.116Z,37.70
2022-11-27T04:03:10.613Z,35.90
2022-11-27T04:05:53.817Z,38.20
2022-11-27T04:08:36.543Z,36.40
2022-11-27T04:11:19.545Z,34.10
2022-11-27T04:14:02.472Z,33.70
2022-11-27T04:16:45.226Z,37.20
2022-11-27T04:19:28.202Z,33.90
2022-11-27T04:22:10.932Z,32.90
2022-11-27T04:27:36.539Z,31.40
2022-11-27T04:33:02.369Z,32.80
2022-11-27T04:35:45.149Z,31.50
2022-11-27T04:41:10.868Z,31.80
2022-11-27T04:46:36.500Z,33.20
2022-11-27T04:49:19.425Z,35.40
2022-11-27T04:52:02.325Z,41.60
2022-11-27T04:54:45.173Z,44.10
2022-11-27T04:57:30.100Z,45.70
2022-11-27T05:00:13.547Z,45.60
2022-11-27T05:02:56.383Z,46.40
2022-11-27T05:05:39.104Z,43.60
2022-11-27T05:11:07.962Z,38.40
2022-11-27T05:14:10.752Z,35.80
2022-11-27T05:16:55.792Z,35.80
2022-11-27T05:19:38.695Z,33.90
2022-11-27T05:22:21.424Z,34.50
2022-11-27T05:27:47.271Z,34.30
2022-11-27T05:33:13.220Z,32.50
2022-11-27T05:35:59.902Z,31.70
2022-11-27T05:38:42.698Z,31.50
2022-11-27T05:44:11.820Z,30.40
2022-11-27T05:46:54.647Z,31.10
2022-11-27T05:49:38.666Z,32.40
2022-11-27T05:52:21.484Z,29.50
2022-11-27T05:55:06.132Z,32.60
2022-11-27T05:57:48.950Z,29.30
2022-11-27T06:03:14.977Z,27.80
2022-11-27T06:05:58.000Z,29.70
2022-11-27T06:08:41.940Z,29.70
2022-11-27T06:11:24.857Z,29.90
2022-11-27T06:14:09.007Z,31.10
2022-11-27T06:16:51.845Z,31.30
2022-11-27T06:19:34.748Z,29.80
2022-11-27T06:25:00.263Z,29.70
2022-11-27T06:30:26.209Z,26.90
2022-11-27T06:33:09.006Z,27.50
2022-11-27T06:38:36.132Z,28.40
2022-11-27T06:41:21.247Z,28.80
2022-11-27T06:44:04.479Z,30.90
2022-11-27T06:46:47.250Z,27.50
2022-11-27T06:52:12.809Z,28.10
2022-11-27T06:57:38.296Z,28.00
2022-11-27T07:00:21.117Z,29.80
2022-11-27T07:03:04.021Z,27.90
2022-11-27T07:05:46.836Z,31.00
2022-11-27T07:11:19.186Z,28.80
2022-11-27T07:14:04.482Z,29.40
2022-11-27T07:16:47.315Z,29.00
2022-11-27T07:19:31.151Z,30.00
2022-11-27T07:22:13.945Z,30.50
2022-11-27T07:27:39.511Z,28.20
2022-11-27T07:33:05.959Z,30.40
2022-11-27T07:35:50.153Z,31.40
2022-11-27T07:38:33.648Z,28.80
2022-11-27T07:41:17.325Z,32.60
2022-11-27T07:44:00.246Z,30.60
2022-11-27T07:46:43.087Z,30.60
2022-11-27T07:49:25.940Z,32.40
2022-11-27T07:54:51.436Z,32.90
2022-11-27T08:01:28.036Z,32.70
2022-11-27T08:04:11.010Z,30.00
2022-11-27T08:06:53.994Z,33.20
2022-11-27T08:12:20.931Z,29.90
2022-11-27T08:15:05.776Z,30.60
2022-11-27T08:17:48.600Z,29.70
2022-11-27T08:20:31.513Z,28.50
2022-11-27T08:23:14.307Z,30.50
2022-11-27T08:28:40.785Z,29.50
2022-11-27T08:31:24.888Z,30.20
2022-11-27T08:34:08.072Z,28.80
2022-11-27T08:36:50.928Z,30.00
2022-11-27T08:39:33.943Z,31.30
2022-11-27T08:42:16.847Z,29.30
2022-11-27T08:44:59.674Z,29.30
2022-11-27T08:47:43.527Z,32.30
2022-11-27T08:50:26.421Z,29.30
2022-11-27T08:53:09.542Z,28.80
2022-11-27T08:55:52.336Z,30.70
2022-11-27T09:01:23.042Z,32.00
2022-11-27T09:04:06.022Z,31.40
2022-11-27T09:06:49.299Z,28.90
2022-11-27T09:09:33.992Z,28.10
2022-11-27T09:12:16.813Z,32.10
2022-11-27T09:17:43.256Z,33.50
2022-11-27T09:20:26.091Z,30.70
2022-11-27T09:23:14.127Z,32.30
2022-11-27T09:26:01.853Z,32.20
2022-11-27T09:28:45.241Z,30.70
2022-11-27T09:31:28.214Z,28.00
2022-11-27T09:34:11.380Z,33.40
2022-11-27T09:36:54.191Z,29.60
2022-11-27T09:42:55.821Z,27.40
2022-11-27T09:45:48.632Z,27.60
2022-11-27T09:51:34.256Z,24.10
2022-11-27T09:54:39.307Z,23.50
2022-11-27T09:57:29.304Z,20.00
2022-11-27T10:00:15.883Z,20.50
2022-11-27T10:02:59.731Z,23.10
2022-11-27T10:06:06.150Z,23.50
2022-11-27T10:08:57.888Z,25.10
2022-11-27T10:11:48.092Z,23.90
2022-11-27T10:14:36.758Z,24.70
2022-11-27T10:17:39.635Z,27.10
2022-11-27T10:20:43.777Z,27.10
2022-11-27T10:24:02.038Z,25.70
2022-11-27T10:26:49.479Z,22.40
2022-11-27T10:29:54.804Z,23.70
2022-11-27T10:35:42.807Z,29.80
2022-11-27T10:38:28.085Z,29.60
2022-11-27T10:44:35.667Z,24.00
2022-11-27T10:47:23.124Z,20.80
2022-11-27T10:50:14.724Z,15.10
2022-11-27T10:53:01.196Z,15.60
2022-11-27T10:56:11.513Z,14.60
2022-11-27T10:59:09.422Z,13.90
2022-11-27T11:01:55.230Z,13.70
2022-11-27T11:04:54.528Z,14.30
2022-11-27T11:07:41.345Z,14.40
2022-11-27T11:10:27.915Z,14.70
2022-11-27T11:13:15.947Z,12.80
2022-11-27T11:16:10.912Z,14.50
2022-11-27T11:18:57.922Z,11.70
2022-11-27T11:21:45.159Z,17.00
2022-11-27T11:24:29.627Z,17.90
2022-11-27T11:27:16.223Z,20.10
2022-11-27T11:30:00.837Z,20.20
2022-11-27T11:32:49.074Z,19.30
2022-11-27T11:35:36.633Z,20.00
2022-11-27T11:38:27.224Z,18.70
2022-11-27T11:41:10.100Z,18.50
2022-11-27T11:44:01.799Z,20.00
2022-11-27T11:46:52.112Z,18.00
2022-11-27T11:49:36.238Z,15.50
2022-11-27T11:52:25.091Z,16.30
2022-11-27T11:55:14.825Z,17.90
2022-11-27T11:58:16.295Z,20.50
2022-11-27T12:01:36.671Z,20.20
2022-11-27T12:04:51.227Z,18.60
2022-11-27T12:07:51.992Z,17.90
2022-11-27T12:10:51.647Z,19.10
2022-11-27T12:13:56.960Z,15.30
2022-11-27T12:16:42.684Z,13.40
2022-11-27T12:19:46.195Z,12.10
2022-11-27T12:23:03.509Z,11.60
2022-11-27T12:26:15.704Z,12.20
2022-11-27T12:29:17.128Z,13.00
2022-11-27T12:32:18.568Z,11.90
2022-11-27T12:35:30.131Z,12.30
2022-11-27T12:38:24.238Z,13.90
2022-11-27T12:41:51.942Z,12.00
2022-11-27T12:44:45.054Z,14.60
2022-11-27T12:47:41.078Z,14.70
2022-11-27T12:50:39.242Z,14.10
2022-11-27T12:53:28.424Z,16.70
2022-11-27T12:56:21.093Z,16.10
2022-11-27T12:59:17.644Z,17.10
2022-11-27T13:02:23.875Z,17.50
2022-11-27T13:05:25.166Z,18.70
2022-11-27T13:08:36.629Z,17.80
2022-11-27T13:11:23.794Z,17.10
2022-11-27T13:14:18.834Z,16.90
2022-11-27T13:17:11.696Z,16.50
2022-11-27T13:22:40.818Z,17.20
2022-11-27T13:25:24.536Z,18.10
2022-11-27T13:28:09.166Z,19.70
2022-11-27T13:30:54.843Z,18.20
2022-11-27T13:33:43.796Z,21.30
2022-11-27T13:36:48.422Z,22.60
2022-11-27T13:39:36.296Z,21.50
2022-11-27T13:42:22.356Z,20.00
2022-11-27T13:45:11.399Z,20.10
2022-11-27T13:47:56.289Z,21.70
2022-11-27T13:50:45.032Z,21.40
2022-11-27T13:53:37.416Z,21.60
2022-11-27T13:56:31.388Z,19.90
2022-11-27T13:59:23.288Z,21.80
2022-11-27T14:02:08.388Z,23.90
2022-11-27T14:04:56.171Z,21.60
2022-11-27T14:07:43.430Z,25.10
2022-11-27T14:10:30.247Z,21.10
2022-11-27T14:13:13.124Z,21.40
2022-11-27T14:16:02.084Z,20.70
2022-11-27T14:18:51.954Z,22.10
2022-11-27T14:21:43.267Z,20.20
2022-11-27T14:24:43.781Z,26.20
2022-11-27T14:27:35.692Z,24.20
2022-11-27T14:30:40.196Z,24.80
2022-11-27T14:33:28.481Z,25.90
2022-11-27T14:36:23.240Z,25.00
2022-11-27T14:39:06.199Z,24.60
2022-11-27T14:42:28.936Z,35.10
2022-11-27T14:45:16.672Z,28.60
2022-11-27T14:47:59.496Z,43.20
2022-11-27T14:50:42.450Z,39.40
2022-11-27T14:53:27.815Z,28.00
2022-11-27T14:56:11.019Z,29.20
2022-11-27T14:58:55.375Z,37.20
2022-11-27T15:01:38.674Z,42.30
2022-11-27T15:04:27.504Z,35.40
2022-11-27T15:07:25.146Z,28.60
2022-11-27T15:10:35.645Z,37.50
2022-11-27T15:13:24.940Z,40.10
2022-11-27T15:16:16.277Z,38.00
2022-11-27T15:19:03.155Z,39.70
2022-11-27T15:21:50.080Z,43.60
2022-11-27T15:24:35.853Z,42.20
2022-11-27T15:27:21.767Z,47.40
2022-11-27T15:30:12.864Z,45.60
2022-11-27T15:32:56.109Z,43.50
2022-11-27T15:35:39.061Z,39.90
2022-11-27T15:38:22.014Z,39.00
2022-11-27T15:41:04.814Z,36.70
2022-11-27T15:46:34.712Z,38.60
2022-11-27T15:49:19.608Z,41.50
2022-11-27T15:52:02.435Z,44.50
2022-11-27T15:54:45.540Z,48.20
2022-11-27T15:57:28.352Z,46.80
2022-11-27T16:00:11.762Z,43.50
2022-11-27T16:02:54.779Z,43.20
2022-11-27T16:05:37.673Z,40.10
2022-11-27T16:08:20.589Z,36.10
2022-11-27T16:11:07.225Z,37.30
2022-11-27T16:13:51.148Z,36.20
2022-11-27T16:16:36.503Z,36.40
2022-11-27T16:19:19.522Z,37.00
2022-11-27T16:24:45.285Z,34.80
2022-11-27T16:27:28.165Z,35.40
2022-11-27T16:30:11.887Z,34.00
2022-11-27T16:32:54.832Z,35.50
2022-11-27T16:35:38.364Z,37.80
2022-11-27T16:38:21.899Z,34.00
2022-11-27T16:41:08.705Z,33.50
2022-11-27T16:43:55.363Z,33.80
2022-11-27T16:46:40.376Z,32.60
2022-11-27T16:49:23.688Z,34.70
2022-11-27T16:52:07.099Z,33.00
2022-11-27T16:54:50.067Z,33.10
2022-11-27T16:57:33.088Z,33.00
2022-11-27T17:00:17.159Z,35.20
2022-11-27T17:02:59.910Z,35.40
2022-11-27T17:08:28.281Z,40.70
2022-11-27T17:11:17.447Z,35.70
2022-11-27T17:14:03.634Z,37.70
2022-11-27T17:16:48.022Z,38.50
2022-11-27T17:19:31.802Z,38.20
2022-11-27T17:22:14.733Z,41.70
2022-11-27T17:24:58.466Z,44.00
2022-11-27T17:27:41.820Z,39.40
2022-11-27T17:30:25.011Z,42.30
2022-11-27T17:33:07.996Z,38.30
2022-11-27T17:35:50.780Z,36.90
2022-11-27T17:38:33.858Z,46.60
2022-11-27T17:41:16.777Z,44.50
2022-11-27T17:43:59.797Z,40.40
2022-11-27T17:49:28.748Z,41.10
2022-11-27T17:52:12.322Z,44.50
2022-11-27T17:54:55.405Z,55.20
2022-11-27T18:00:21.359Z,51.40
2022-11-27T18:03:07.463Z,45.40
2022-11-27T18:05:50.588Z,49.20
2022-11-27T18:08:35.236Z,45.10
2022-11-27T18:11:22.551Z,45.40
2022-11-27T18:14:06.230Z,43.70
2022-11-27T18:16:49.177Z,46.60
2022-11-27T18:19:32.213Z,40.20
2022-11-27T18:22:16.272Z,47.00
2022-11-27T18:24:59.048Z,43.20
2022-11-27T18:27:42.585Z,43.10
2022-11-27T18:30:26.430Z,48.90
2022-11-27T18:33:09.176Z,56.80
2022-11-27T18:35:53.475Z,50.80
2022-11-27T18:38:39.083Z,48.70
2022-11-27T18:41:24.130Z,44.90
2022-11-27T18:44:07.164Z,45.70
2022-11-27T18:46:50.723Z,46.70
2022-11-27T18:49:33.961Z,55.20
2022-11-27T18:52:17.464Z,51.50
2022-11-27T18:55:03.074Z,49.10
2022-11-27T18:57:46.483Z,52.90
2022-11-27T19:00:29.443Z,58.40
2022-11-27T19:05:57.318Z,60.90
2022-11-27T19:08:40.944Z,59.50
2022-11-27T19:11:24.949Z,54.70
2022-11-27T19:14:09.239Z,57.30
2022-11-27T19:16:53.117Z,54.40
2022-11-27T19:22:39.293Z,52.90
2022-11-27T19:25:22.364Z,53.10
2022-11-27T19:28:10.021Z,56.00
2022-11-27T19:30:52.909Z,56.70
2022-11-27T19:33:36.757Z,55.30
2022-11-27T19:36:20.696Z,53.50
2022-11-27T19:39:07.464Z,53.10
2022-11-27T19:41:50.618Z,51.70
2022-11-27T19:44:34.251Z,50.70
2022-11-27T19:47:17.096Z,50.20
2022-11-27T19:50:00.204Z,47.20
2022-11-27T19:52:44.133Z,47.90
2022-11-27T19:55:27.040Z,47.70
2022-11-27T19:58:09.948Z,49.00
2022-11-27T20:00:54.126Z,49.40
2022-11-27T20:03:37.723Z,50.50
2022-11-27T20:06:23.796Z,48.30
2022-11-27T20:09:07.035Z,46.90
2022-11-27T20:11:49.973Z,46.00
2022-11-27T20:14:32.787Z,45.00
2022-11-27T20:17:16.631Z,46.90
2022-11-27T20:20:01.024Z,46.00
2022-11-27T20:22:43.969Z,46.60
2022-11-27T20:25:27.159Z,44.00
2022-11-27T20:28:10.503Z,43.80
2022-11-27T20:31:02.072Z,40.00
2022-11-27T20:33:45.745Z,40.90
2022-11-27T20:36:34.165Z,40.20
2022-11-27T20:39:21.593Z,45.00
2022-11-27T20:42:06.056Z,49.60
2022-11-27T20:44:49.352Z,50.90
2022-11-27T20:47:32.440Z,50.20
2022-11-27T20:50:15.308Z,49.10
2022-11-27T20:52:58.260Z,48.60
2022-11-27T20:55:42.278Z,48.50
2022-11-27T20:58:25.388Z,49.00
2022-11-27T21:01:21.632Z,45.70
2022-11-27T21:04:09.597Z,49.20
2022-11-27T21:06:52.860Z,50.10
2022-11-27T21:09:35.636Z,54.50
2022-11-27T21:12:19.099Z,53.00
2022-11-27T21:17:44.823Z,50.20
2022-11-27T21:20:29.370Z,45.70
2022-11-27T21:23:12.544Z,42.40
2022-11-27T21:25:56.440Z,43.50
2022-11-27T21:28:39.357Z,44.40
2022-11-27T21:31:24.855Z,42.10
2022-11-27T21:34:11.333Z,41.60
2022-11-27T21:36:54.643Z,44.40
2022-11-27T21:39:38.469Z,39.90
2022-11-27T21:42:21.352Z,41.90
2022-11-27T21:47:47.494Z,41.90
2022-11-27T21:50:30.340Z,39.80
2022-11-27T21:53:13.150Z,41.00
2022-11-27T21:58:39.020Z,40.00
2022-11-27T22:01:24.192Z,39.00
2022-11-27T22:04:07.166Z,37.40
2022-11-27T22:06:52.720Z,37.40
2022-11-27T22:09:35.860Z,43.30
2022-11-27T22:12:18.876Z,40.10
2022-11-27T22:15:04.351Z,41.00
2022-11-27T22:17:48.698Z,36.50
2022-11-27T22:20:31.718Z,37.40
2022-11-27T22:23:14.551Z,38.50
2022-11-27T22:28:45.228Z,35.60
2022-11-27T22:31:33.093Z,39.30
2022-11-27T22:34:16.729Z,40.30
2022-11-27T22:37:02.123Z,37.30
2022-11-27T22:39:45.024Z,44.30
2022-11-27T22:42:28.644Z,42.20
2022-11-27T22:45:11.548Z,44.00
2022-11-27T22:47:54.949Z,41.10
2022-11-27T22:53:21.296Z,41.50
2022-11-27T22:56:10.691Z,40.60
2022-11-27T22:59:11.458Z,40.70
2022-11-27T23:04:39.430Z,36.70
2022-11-27T23:07:25.175Z,38.80
2022-11-27T23:10:09.532Z,40.20
2022-11-27T23:12:53.345Z,40.40
2022-11-27T23:15:36.161Z,37.60
2022-11-27T23:21:06.581Z,34.50
2022-11-27T23:23:50.534Z,36.30
2022-11-27T23:26:33.946Z,37.00
2022-11-27T23:29:16.773Z,35.00
2022-11-27T23:34:42.546Z,35.00
2022-11-27T23:37:25.671Z,35.20
2022-11-27T23:40:09.054Z,36.10
2022-11-27T23:42:51.948Z,35.10
2022-11-27T23:48:17.493Z,32.20
2022-11-27T23:53:50.577Z,32.80
2022-11-27T23:56:33.890Z,32.60
2022-11-27T23:59:16.680Z,34.20
